sensor_id;sensor_type;location;lat;lon;timestamp;P1;durP1;ratioP1;P2;durP2;ratioP2
6259;SDS011;3163;51.516;4.000;2023-06-10T00:01:15;3.88;;;3.58;;
6259;SDS011;3163;51.516;4.000;2023-06-10T00:03:41;4.28;;;3.97;;
6259;SDS011;3163;51.516;4.000;2023-06-10T00:06:09;4.30;;;3.88;;
6259;SDS011;3163;51.516;4.000;2023-06-10T00:08:35;3.97;;;3.67;;
6259;SDS011;3163;51.516;4.000;2023-06-10T00:11:02;4.50;;;4.10;;
6259;SDS011;3163;51.516;4.000;2023-06-10T00:13:29;3.90;;;3.47;;
6259;SDS011;3163;51.516;4.000;2023-06-10T00:15:55;4.60;;;3.83;;
6259;SDS011;3163;51.516;4.000;2023-06-10T00:18:21;5.23;;;4.73;;
6259;SDS011;3163;51.516;4.000;2023-06-10T00:20:47;4.65;;;4.03;;
6259;SDS011;3163;51.516;4.000;2023-06-10T00:23:17;4.60;;;4.20;;
6259;SDS011;3163;51.516;4.000;2023-06-10T00:25:43;4.57;;;4.18;;
6259;SDS011;3163;51.516;4.000;2023-06-10T00:28:09;4.03;;;3.73;;
6259;SDS011;3163;51.516;4.000;2023-06-10T00:30:35;4.10;;;3.75;;
6259;SDS011;3163;51.516;4.000;2023-06-10T00:33:01;4.22;;;3.60;;
6259;SDS011;3163;51.516;4.000;2023-06-10T00:35:27;5.93;;;3.85;;
6259;SDS011;3163;51.516;4.000;2023-06-10T00:37:53;6.80;;;5.10;;
6259;SDS011;3163;51.516;4.000;2023-06-10T00:40:19;3.80;;;3.47;;
6259;SDS011;3163;51.516;4.000;2023-06-10T00:42:45;4.70;;;4.25;;
6259;SDS011;3163;51.516;4.000;2023-06-10T00:45:11;4.50;;;4.10;;
6259;SDS011;3163;51.516;4.000;2023-06-10T00:47:38;4.85;;;4.38;;
6259;SDS011;3163;51.516;4.000;2023-06-10T00:50:04;4.57;;;4.13;;
6259;SDS011;3163;51.516;4.000;2023-06-10T00:52:31;4.50;;;4.10;;
6259;SDS011;3163;51.516;4.000;2023-06-10T00:54:57;5.55;;;4.40;;
6259;SDS011;3163;51.516;4.000;2023-06-10T00:57:24;4.20;;;3.80;;
6259;SDS011;3163;51.516;4.000;2023-06-10T00:59:51;5.57;;;4.10;;
6259;SDS011;3163;51.516;4.000;2023-06-10T01:02:17;4.68;;;4.28;;
6259;SDS011;3163;51.516;4.000;2023-06-10T01:04:43;6.15;;;5.55;;
6259;SDS011;3163;51.516;4.000;2023-06-10T01:14:34;4.43;;;4.03;;
6259;SDS011;3163;51.516;4.000;2023-06-10T01:17:00;4.93;;;4.43;;
6259;SDS011;3163;51.516;4.000;2023-06-10T01:19:28;3.83;;;3.53;;
6259;SDS011;3163;51.516;4.000;2023-06-10T01:21:56;4.55;;;4.15;;
6259;SDS011;3163;51.516;4.000;2023-06-10T01:24:25;4.00;;;3.70;;
6259;SDS011;3163;51.516;4.000;2023-06-10T01:26:51;4.57;;;3.92;;
6259;SDS011;3163;51.516;4.000;2023-06-10T01:29:21;4.50;;;3.70;;
6259;SDS011;3163;51.516;4.000;2023-06-10T01:31:56;5.88;;;4.85;;
6259;SDS011;3163;51.516;4.000;2023-06-10T01:34:25;4.05;;;3.75;;
6259;SDS011;3163;51.516;4.000;2023-06-10T01:36:52;4.22;;;3.78;;
6259;SDS011;3163;51.516;4.000;2023-06-10T01:39:20;3.65;;;3.35;;
6259;SDS011;3163;51.516;4.000;2023-06-10T01:41:48;5.65;;;5.15;;
6259;SDS011;3163;51.516;4.000;2023-06-10T01:44:21;3.75;;;3.47;;
6259;SDS011;3163;51.516;4.000;2023-06-10T01:46:47;6.85;;;4.63;;
6259;SDS011;3163;51.516;4.000;2023-06-10T01:49:13;3.88;;;3.60;;
6259;SDS011;3163;51.516;4.000;2023-06-10T01:51:39;5.32;;;4.07;;
6259;SDS011;3163;51.516;4.000;2023-06-10T01:54:06;5.43;;;3.67;;
6259;SDS011;3163;51.516;4.000;2023-06-10T01:56:32;5.65;;;4.38;;
6259;SDS011;3163;51.516;4.000;2023-06-10T01:58:58;4.70;;;4.30;;
6259;SDS011;3163;51.516;4.000;2023-06-10T02:01:25;4.15;;;3.60;;
6259;SDS011;3163;51.516;4.000;2023-06-10T02:03:51;4.53;;;4.10;;
6259;SDS011;3163;51.516;4.000;2023-06-10T02:06:17;4.18;;;3.78;;
6259;SDS011;3163;51.516;4.000;2023-06-10T02:08:43;3.85;;;3.55;;
6259;SDS011;3163;51.516;4.000;2023-06-10T02:11:09;3.75;;;3.45;;
6259;SDS011;3163;51.516;4.000;2023-06-10T02:13:35;4.15;;;3.42;;
6259;SDS011;3163;51.516;4.000;2023-06-10T02:16:01;4.22;;;3.83;;
6259;SDS011;3163;51.516;4.000;2023-06-10T02:18:27;4.70;;;4.30;;
6259;SDS011;3163;51.516;4.000;2023-06-10T02:20:53;3.70;;;3.50;;
6259;SDS011;3163;51.516;4.000;2023-06-10T02:23:19;4.00;;;3.70;;
6259;SDS011;3163;51.516;4.000;2023-06-10T02:25:45;3.60;;;3.35;;
6259;SDS011;3163;51.516;4.000;2023-06-10T02:28:13;4.35;;;3.95;;
6259;SDS011;3163;51.516;4.000;2023-06-10T02:30:42;3.90;;;3.60;;
6259;SDS011;3163;51.516;4.000;2023-06-10T02:33:08;3.53;;;3.22;;
6259;SDS011;3163;51.516;4.000;2023-06-10T02:35:38;4.10;;;3.70;;
6259;SDS011;3163;51.516;4.000;2023-06-10T02:38:04;3.88;;;3.58;;
6259;SDS011;3163;51.516;4.000;2023-06-10T02:40:30;4.40;;;4.00;;
6259;SDS011;3163;51.516;4.000;2023-06-10T02:42:56;4.20;;;3.78;;
6259;SDS011;3163;51.516;4.000;2023-06-10T02:45:23;5.07;;;3.45;;
6259;SDS011;3163;51.516;4.000;2023-06-10T02:47:49;5.05;;;4.55;;
6259;SDS011;3163;51.516;4.000;2023-06-10T02:50:15;6.72;;;4.00;;
6259;SDS011;3163;51.516;4.000;2023-06-10T02:52:41;4.43;;;4.05;;
6259;SDS011;3163;51.516;4.000;2023-06-10T02:55:07;5.72;;;3.92;;
6259;SDS011;3163;51.516;4.000;2023-06-10T02:57:33;5.80;;;5.05;;
6259;SDS011;3163;51.516;4.000;2023-06-10T03:00:00;4.90;;;4.30;;
6259;SDS011;3163;51.516;4.000;2023-06-10T03:02:28;3.95;;;3.65;;
6259;SDS011;3163;51.516;4.000;2023-06-10T03:04:56;4.40;;;3.83;;
6259;SDS011;3163;51.516;4.000;2023-06-10T03:07:23;4.82;;;4.38;;
6259;SDS011;3163;51.516;4.000;2023-06-10T03:09:49;6.45;;;3.63;;
6259;SDS011;3163;51.516;4.000;2023-06-10T03:12:15;4.32;;;3.85;;
6259;SDS011;3163;51.516;4.000;2023-06-10T03:14:41;3.42;;;3.22;;
6259;SDS011;3163;51.516;4.000;2023-06-10T03:17:07;4.65;;;4.25;;
6259;SDS011;3163;51.516;4.000;2023-06-10T03:19:34;4.32;;;3.58;;
6259;SDS011;3163;51.516;4.000;2023-06-10T03:22:10;3.97;;;3.67;;
6259;SDS011;3163;51.516;4.000;2023-06-10T03:24:36;4.05;;;3.65;;
6259;SDS011;3163;51.516;4.000;2023-06-10T03:27:08;4.20;;;3.90;;
6259;SDS011;3163;51.516;4.000;2023-06-10T03:29:34;5.18;;;4.15;;
6259;SDS011;3163;51.516;4.000;2023-06-10T03:32:00;4.55;;;4.10;;
6259;SDS011;3163;51.516;4.000;2023-06-10T03:34:26;4.75;;;3.85;;
6259;SDS011;3163;51.516;4.000;2023-06-10T03:36:54;4.22;;;3.80;;
6259;SDS011;3163;51.516;4.000;2023-06-10T03:39:19;4.32;;;3.92;;
6259;SDS011;3163;51.516;4.000;2023-06-10T03:41:46;5.25;;;4.75;;
6259;SDS011;3163;51.516;4.000;2023-06-10T03:44:11;4.45;;;4.05;;
6259;SDS011;3163;51.516;4.000;2023-06-10T03:46:37;4.32;;;4.03;;
6259;SDS011;3163;51.516;4.000;2023-06-10T03:49:04;8.55;;;3.63;;
6259;SDS011;3163;51.516;4.000;2023-06-10T03:51:30;6.20;;;5.10;;
6259;SDS011;3163;51.516;4.000;2023-06-10T03:53:55;6.07;;;4.80;;
6259;SDS011;3163;51.516;4.000;2023-06-10T03:56:21;3.83;;;3.53;;
6259;SDS011;3163;51.516;4.000;2023-06-10T03:58:47;5.72;;;4.88;;
6259;SDS011;3163;51.516;4.000;2023-06-10T04:01:13;3.58;;;3.05;;
6259;SDS011;3163;51.516;4.000;2023-06-10T04:03:40;5.38;;;4.90;;
6259;SDS011;3163;51.516;4.000;2023-06-10T04:06:06;3.85;;;3.53;;
6259;SDS011;3163;51.516;4.000;2023-06-10T04:08:33;3.78;;;3.47;;
6259;SDS011;3163;51.516;4.000;2023-06-10T04:10:59;4.30;;;3.90;;
6259;SDS011;3163;51.516;4.000;2023-06-10T04:13:25;4.20;;;3.80;;
6259;SDS011;3163;51.516;4.000;2023-06-10T04:15:52;4.18;;;3.60;;
6259;SDS011;3163;51.516;4.000;2023-06-10T04:18:19;4.38;;;3.97;;
6259;SDS011;3163;51.516;4.000;2023-06-10T04:20:46;4.55;;;3.95;;
6259;SDS011;3163;51.516;4.000;2023-06-10T04:23:12;3.75;;;3.38;;
6259;SDS011;3163;51.516;4.000;2023-06-10T04:25:38;4.10;;;3.80;;
6259;SDS011;3163;51.516;4.000;2023-06-10T04:28:04;5.05;;;4.63;;
6259;SDS011;3163;51.516;4.000;2023-06-10T04:30:30;3.88;;;3.58;;
6259;SDS011;3163;51.516;4.000;2023-06-10T04:32:56;9.27;;;6.05;;
6259;SDS011;3163;51.516;4.000;2023-06-10T04:35:22;3.20;;;2.97;;
6259;SDS011;3163;51.516;4.000;2023-06-10T04:37:51;5.07;;;4.13;;
6259;SDS011;3163;51.516;4.000;2023-06-10T04:40:17;6.68;;;5.43;;
6259;SDS011;3163;51.516;4.000;2023-06-10T04:42:43;5.60;;;5.10;;
6259;SDS011;3163;51.516;4.000;2023-06-10T04:45:09;4.38;;;3.72;;
6259;SDS011;3163;51.516;4.000;2023-06-10T04:47:35;3.80;;;3.50;;
6259;SDS011;3163;51.516;4.000;2023-06-10T04:50:02;3.58;;;3.28;;
6259;SDS011;3163;51.516;4.000;2023-06-10T04:52:28;4.30;;;3.90;;
6259;SDS011;3163;51.516;4.000;2023-06-10T04:54:54;4.15;;;3.83;;
6259;SDS011;3163;51.516;4.000;2023-06-10T04:57:20;4.45;;;4.00;;
6259;SDS011;3163;51.516;4.000;2023-06-10T04:59:47;3.67;;;3.38;;
6259;SDS011;3163;51.516;4.000;2023-06-10T05:02:13;3.95;;;3.58;;
6259;SDS011;3163;51.516;4.000;2023-06-10T05:04:39;8.07;;;5.45;;
6259;SDS011;3163;51.516;4.000;2023-06-10T05:07:05;4.35;;;3.78;;
6259;SDS011;3163;51.516;4.000;2023-06-10T05:09:31;4.68;;;4.25;;
6259;SDS011;3163;51.516;4.000;2023-06-10T05:11:58;4.35;;;3.95;;
6259;SDS011;3163;51.516;4.000;2023-06-10T05:14:24;4.28;;;3.88;;
6259;SDS011;3163;51.516;4.000;2023-06-10T05:16:50;4.28;;;3.88;;
6259;SDS011;3163;51.516;4.000;2023-06-10T05:19:16;7.47;;;5.35;;
6259;SDS011;3163;51.516;4.000;2023-06-10T05:21:42;5.38;;;4.60;;
6259;SDS011;3163;51.516;4.000;2023-06-10T05:24:08;6.80;;;4.03;;
6259;SDS011;3163;51.516;4.000;2023-06-10T05:26:34;4.78;;;4.38;;
6259;SDS011;3163;51.516;4.000;2023-06-10T05:29:04;4.82;;;4.13;;
6259;SDS011;3163;51.516;4.000;2023-06-10T05:31:30;5.70;;;4.80;;
6259;SDS011;3163;51.516;4.000;2023-06-10T05:33:57;4.38;;;4.03;;
6259;SDS011;3163;51.516;4.000;2023-06-10T05:36:23;4.88;;;3.58;;
6259;SDS011;3163;51.516;4.000;2023-06-10T05:38:53;5.95;;;5.35;;
6259;SDS011;3163;51.516;4.000;2023-06-10T05:41:19;4.07;;;3.47;;
6259;SDS011;3163;51.516;4.000;2023-06-10T05:43:47;3.80;;;3.50;;
6259;SDS011;3163;51.516;4.000;2023-06-10T05:46:13;4.97;;;4.50;;
6259;SDS011;3163;51.516;4.000;2023-06-10T05:48:39;4.38;;;3.88;;
6259;SDS011;3163;51.516;4.000;2023-06-10T05:51:05;6.07;;;5.47;;
6259;SDS011;3163;51.516;4.000;2023-06-10T05:53:31;3.72;;;3.42;;
6259;SDS011;3163;51.516;4.000;2023-06-10T05:55:57;6.00;;;4.53;;
6259;SDS011;3163;51.516;4.000;2023-06-10T05:58:24;4.50;;;4.10;;
6259;SDS011;3163;51.516;4.000;2023-06-10T06:00:50;7.38;;;4.70;;
6259;SDS011;3163;51.516;4.000;2023-06-10T06:03:17;4.78;;;4.28;;
6259;SDS011;3163;51.516;4.000;2023-06-10T06:05:43;7.13;;;6.43;;
6259;SDS011;3163;51.516;4.000;2023-06-10T06:08:11;4.93;;;4.45;;
6259;SDS011;3163;51.516;4.000;2023-06-10T06:10:38;4.93;;;4.50;;
6259;SDS011;3163;51.516;4.000;2023-06-10T06:13:04;6.20;;;5.30;;
6259;SDS011;3163;51.516;4.000;2023-06-10T06:15:30;5.30;;;4.82;;
6259;SDS011;3163;51.516;4.000;2023-06-10T06:17:56;6.80;;;5.13;;
6259;SDS011;3163;51.516;4.000;2023-06-10T06:20:22;5.85;;;4.38;;
6259;SDS011;3163;51.516;4.000;2023-06-10T06:22:48;4.65;;;4.07;;
6259;SDS011;3163;51.516;4.000;2023-06-10T06:25:14;4.00;;;3.70;;
6259;SDS011;3163;51.516;4.000;2023-06-10T06:27:40;4.95;;;4.45;;
6259;SDS011;3163;51.516;4.000;2023-06-10T06:30:07;5.55;;;5.05;;
6259;SDS011;3163;51.516;4.000;2023-06-10T06:32:33;4.38;;;4.07;;
6259;SDS011;3163;51.516;4.000;2023-06-10T06:34:59;4.50;;;4.10;;
6259;SDS011;3163;51.516;4.000;2023-06-10T06:37:25;4.10;;;3.75;;
6259;SDS011;3163;51.516;4.000;2023-06-10T06:39:52;6.30;;;5.70;;
6259;SDS011;3163;51.516;4.000;2023-06-10T06:42:18;5.25;;;4.15;;
6259;SDS011;3163;51.516;4.000;2023-06-10T06:44:44;6.13;;;5.50;;
6259;SDS011;3163;51.516;4.000;2023-06-10T06:47:10;5.55;;;4.28;;
6259;SDS011;3163;51.516;4.000;2023-06-10T06:49:37;4.30;;;4.00;;
6259;SDS011;3163;51.516;4.000;2023-06-10T06:52:03;5.15;;;4.40;;
6259;SDS011;3163;51.516;4.000;2023-06-10T06:54:29;4.35;;;3.95;;
6259;SDS011;3163;51.516;4.000;2023-06-10T06:56:55;4.60;;;3.80;;
6259;SDS011;3163;51.516;4.000;2023-06-10T06:59:21;12.82;;;7.30;;
6259;SDS011;3163;51.516;4.000;2023-06-10T07:01:47;8.93;;;6.97;;
6259;SDS011;3163;51.516;4.000;2023-06-10T07:04:14;10.70;;;6.75;;
6259;SDS011;3163;51.516;4.000;2023-06-10T07:06:41;6.53;;;5.93;;
6259;SDS011;3163;51.516;4.000;2023-06-10T07:09:07;7.25;;;5.15;;
6259;SDS011;3163;51.516;4.000;2023-06-10T07:11:36;9.02;;;7.30;;
6259;SDS011;3163;51.516;4.000;2023-06-10T07:14:02;8.23;;;7.25;;
6259;SDS011;3163;51.516;4.000;2023-06-10T07:16:28;10.50;;;6.05;;
6259;SDS011;3163;51.516;4.000;2023-06-10T07:18:54;9.63;;;7.10;;
6259;SDS011;3163;51.516;4.000;2023-06-10T07:21:20;12.05;;;8.55;;
6259;SDS011;3163;51.516;4.000;2023-06-10T07:23:48;10.25;;;6.57;;
6259;SDS011;3163;51.516;4.000;2023-06-10T07:26:14;9.43;;;6.50;;
6259;SDS011;3163;51.516;4.000;2023-06-10T07:28:40;8.25;;;6.45;;
6259;SDS011;3163;51.516;4.000;2023-06-10T07:31:07;11.05;;;7.40;;
6259;SDS011;3163;51.516;4.000;2023-06-10T07:33:33;12.05;;;6.88;;
6259;SDS011;3163;51.516;4.000;2023-06-10T07:35:59;8.55;;;6.70;;
6259;SDS011;3163;51.516;4.000;2023-06-10T07:38:25;8.43;;;6.72;;
6259;SDS011;3163;51.516;4.000;2023-06-10T07:40:52;9.85;;;7.53;;
6259;SDS011;3163;51.516;4.000;2023-06-10T07:43:18;8.15;;;6.05;;
6259;SDS011;3163;51.516;4.000;2023-06-10T07:45:45;9.32;;;6.88;;
6259;SDS011;3163;51.516;4.000;2023-06-10T07:48:11;8.70;;;6.75;;
6259;SDS011;3163;51.516;4.000;2023-06-10T07:50:37;8.90;;;6.18;;
6259;SDS011;3163;51.516;4.000;2023-06-10T07:53:03;8.07;;;6.07;;
6259;SDS011;3163;51.516;4.000;2023-06-10T07:55:29;7.20;;;5.82;;
6259;SDS011;3163;51.516;4.000;2023-06-10T07:57:55;8.27;;;6.53;;
6259;SDS011;3163;51.516;4.000;2023-06-10T08:00:21;10.10;;;6.78;;
6259;SDS011;3163;51.516;4.000;2023-06-10T08:02:47;7.65;;;5.75;;
6259;SDS011;3163;51.516;4.000;2023-06-10T08:05:13;5.57;;;5.07;;
6259;SDS011;3163;51.516;4.000;2023-06-10T08:07:39;6.90;;;6.20;;
6259;SDS011;3163;51.516;4.000;2023-06-10T08:10:06;7.57;;;5.35;;
6259;SDS011;3163;51.516;4.000;2023-06-10T08:12:32;8.63;;;6.40;;
6259;SDS011;3163;51.516;4.000;2023-06-10T08:14:58;7.00;;;6.22;;
6259;SDS011;3163;51.516;4.000;2023-06-10T08:17:25;7.13;;;6.40;;
6259;SDS011;3163;51.516;4.000;2023-06-10T08:19:51;9.82;;;6.40;;
6259;SDS011;3163;51.516;4.000;2023-06-10T08:22:17;7.03;;;6.15;;
6259;SDS011;3163;51.516;4.000;2023-06-10T08:24:43;8.23;;;5.53;;
6259;SDS011;3163;51.516;4.000;2023-06-10T08:27:09;7.38;;;5.93;;
6259;SDS011;3163;51.516;4.000;2023-06-10T08:29:35;11.85;;;7.18;;
6259;SDS011;3163;51.516;4.000;2023-06-10T08:32:01;6.50;;;5.57;;
6259;SDS011;3163;51.516;4.000;2023-06-10T08:34:28;9.02;;;5.95;;
6259;SDS011;3163;51.516;4.000;2023-06-10T08:36:54;9.10;;;6.75;;
6259;SDS011;3163;51.516;4.000;2023-06-10T08:39:20;9.05;;;7.35;;
6259;SDS011;3163;51.516;4.000;2023-06-10T08:41:55;14.65;;;6.82;;
6259;SDS011;3163;51.516;4.000;2023-06-10T08:44:28;8.90;;;6.40;;
6259;SDS011;3163;51.516;4.000;2023-06-10T08:46:55;12.13;;;6.35;;
6259;SDS011;3163;51.516;4.000;2023-06-10T08:49:22;9.77;;;7.00;;
6259;SDS011;3163;51.516;4.000;2023-06-10T08:51:50;8.20;;;6.78;;
6259;SDS011;3163;51.516;4.000;2023-06-10T08:54:22;10.07;;;5.90;;
6259;SDS011;3163;51.516;4.000;2023-06-10T08:56:50;17.67;;;5.75;;
6259;SDS011;3163;51.516;4.000;2023-06-10T08:59:17;6.70;;;5.93;;
6259;SDS011;3163;51.516;4.000;2023-06-10T09:01:44;6.97;;;5.85;;
6259;SDS011;3163;51.516;4.000;2023-06-10T09:04:10;10.73;;;5.55;;
6259;SDS011;3163;51.516;4.000;2023-06-10T09:06:36;9.43;;;6.20;;
6259;SDS011;3163;51.516;4.000;2023-06-10T09:09:03;6.03;;;4.97;;
6259;SDS011;3163;51.516;4.000;2023-06-10T09:11:30;7.72;;;5.93;;
6259;SDS011;3163;51.516;4.000;2023-06-10T09:13:56;7.80;;;5.82;;
6259;SDS011;3163;51.516;4.000;2023-06-10T09:16:23;7.63;;;6.20;;
6259;SDS011;3163;51.516;4.000;2023-06-10T09:18:50;10.25;;;6.90;;
6259;SDS011;3163;51.516;4.000;2023-06-10T09:21:20;19.20;;;6.55;;
6259;SDS011;3163;51.516;4.000;2023-06-10T09:23:46;18.70;;;6.05;;
6259;SDS011;3163;51.516;4.000;2023-06-10T09:26:13;9.27;;;6.22;;
6259;SDS011;3163;51.516;4.000;2023-06-10T09:28:41;9.10;;;5.68;;
6259;SDS011;3163;51.516;4.000;2023-06-10T09:31:07;9.27;;;6.07;;
6259;SDS011;3163;51.516;4.000;2023-06-10T09:33:36;6.85;;;5.93;;
6259;SDS011;3163;51.516;4.000;2023-06-10T09:36:03;8.38;;;5.80;;
6259;SDS011;3163;51.516;4.000;2023-06-10T09:38:30;5.95;;;5.40;;
6259;SDS011;3163;51.516;4.000;2023-06-10T09:40:57;8.10;;;5.55;;
6259;SDS011;3163;51.516;4.000;2023-06-10T09:43:23;5.78;;;5.20;;
6259;SDS011;3163;51.516;4.000;2023-06-10T09:45:49;6.05;;;5.22;;
6259;SDS011;3163;51.516;4.000;2023-06-10T09:48:19;6.72;;;5.35;;
6259;SDS011;3163;51.516;4.000;2023-06-10T09:50:45;5.60;;;5.10;;
6259;SDS011;3163;51.516;4.000;2023-06-10T09:53:12;5.97;;;5.43;;
6259;SDS011;3163;51.516;4.000;2023-06-10T09:55:38;10.15;;;5.25;;
6259;SDS011;3163;51.516;4.000;2023-06-10T09:58:04;5.47;;;4.80;;
6259;SDS011;3163;51.516;4.000;2023-06-10T10:00:33;6.80;;;5.15;;
6259;SDS011;3163;51.516;4.000;2023-06-10T10:03:00;6.30;;;5.70;;
6259;SDS011;3163;51.516;4.000;2023-06-10T10:05:26;5.57;;;5.03;;
6259;SDS011;3163;51.516;4.000;2023-06-10T10:07:52;9.02;;;5.47;;
6259;SDS011;3163;51.516;4.000;2023-06-10T10:10:21;5.93;;;5.43;;
6259;SDS011;3163;51.516;4.000;2023-06-10T10:12:47;9.02;;;5.45;;
6259;SDS011;3163;51.516;4.000;2023-06-10T10:15:15;14.18;;;5.95;;
6259;SDS011;3163;51.516;4.000;2023-06-10T10:20:14;8.00;;;5.57;;
6259;SDS011;3163;51.516;4.000;2023-06-10T10:22:43;8.18;;;6.82;;
6259;SDS011;3163;51.516;4.000;2023-06-10T10:25:13;6.20;;;5.57;;
6259;SDS011;3163;51.516;4.000;2023-06-10T10:27:48;7.00;;;5.28;;
6259;SDS011;3163;51.516;4.000;2023-06-10T10:30:14;5.03;;;4.40;;
6259;SDS011;3163;51.516;4.000;2023-06-10T10:32:45;5.60;;;5.10;;
6259;SDS011;3163;51.516;4.000;2023-06-10T10:35:17;14.65;;;5.13;;
6259;SDS011;3163;51.516;4.000;2023-06-10T10:37:46;6.35;;;5.47;;
6259;SDS011;3163;51.516;4.000;2023-06-10T10:40:12;4.93;;;4.53;;
6259;SDS011;3163;51.516;4.000;2023-06-10T10:42:39;4.90;;;4.43;;
6259;SDS011;3163;51.516;4.000;2023-06-10T10:45:06;7.15;;;5.38;;
6259;SDS011;3163;51.516;4.000;2023-06-10T10:47:33;8.40;;;5.80;;
6259;SDS011;3163;51.516;4.000;2023-06-10T10:50:00;5.57;;;4.68;;
6259;SDS011;3163;51.516;4.000;2023-06-10T10:52:28;7.82;;;5.22;;
6259;SDS011;3163;51.516;4.000;2023-06-10T10:55:14;5.93;;;5.10;;
6259;SDS011;3163;51.516;4.000;2023-06-10T10:57:40;6.07;;;4.80;;
6259;SDS011;3163;51.516;4.000;2023-06-10T11:00:06;6.80;;;5.35;;
6259;SDS011;3163;51.516;4.000;2023-06-10T11:05:03;5.85;;;5.00;;
6259;SDS011;3163;51.516;4.000;2023-06-10T11:07:30;6.10;;;5.05;;
6259;SDS011;3163;51.516;4.000;2023-06-10T11:09:57;5.38;;;4.82;;
6259;SDS011;3163;51.516;4.000;2023-06-10T11:12:24;6.15;;;5.57;;
6259;SDS011;3163;51.516;4.000;2023-06-10T11:14:54;5.20;;;4.70;;
6259;SDS011;3163;51.516;4.000;2023-06-10T11:17:23;5.50;;;5.00;;
6259;SDS011;3163;51.516;4.000;2023-06-10T11:19:49;5.32;;;4.82;;
6259;SDS011;3163;51.516;4.000;2023-06-10T11:22:18;7.18;;;5.22;;
6259;SDS011;3163;51.516;4.000;2023-06-10T11:24:48;5.63;;;5.03;;
6259;SDS011;3163;51.516;4.000;2023-06-10T11:29:55;4.93;;;3.95;;
6259;SDS011;3163;51.516;4.000;2023-06-10T11:32:21;7.10;;;4.50;;
6259;SDS011;3163;51.516;4.000;2023-06-10T11:34:52;4.97;;;4.47;;
6259;SDS011;3163;51.516;4.000;2023-06-10T11:37:18;5.43;;;4.90;;
6259;SDS011;3163;51.516;4.000;2023-06-10T11:39:44;7.43;;;4.70;;
6259;SDS011;3163;51.516;4.000;2023-06-10T11:42:10;5.03;;;4.07;;
6259;SDS011;3163;51.516;4.000;2023-06-10T11:44:36;4.30;;;3.90;;
6259;SDS011;3163;51.516;4.000;2023-06-10T11:47:03;6.68;;;4.90;;
6259;SDS011;3163;51.516;4.000;2023-06-10T11:49:29;8.88;;;4.43;;
6259;SDS011;3163;51.516;4.000;2023-06-10T11:51:55;5.20;;;4.78;;
6259;SDS011;3163;51.516;4.000;2023-06-10T11:54:21;5.35;;;4.13;;
6259;SDS011;3163;51.516;4.000;2023-06-10T11:56:47;4.53;;;4.13;;
6259;SDS011;3163;51.516;4.000;2023-06-10T11:59:13;4.20;;;3.80;;
6259;SDS011;3163;51.516;4.000;2023-06-10T12:01:43;4.65;;;4.25;;
6259;SDS011;3163;51.516;4.000;2023-06-10T12:04:11;5.07;;;3.92;;
6259;SDS011;3163;51.516;4.000;2023-06-10T12:09:12;5.35;;;3.97;;
6259;SDS011;3163;51.516;4.000;2023-06-10T12:11:38;4.90;;;4.03;;
6259;SDS011;3163;51.516;4.000;2023-06-10T12:14:05;4.47;;;4.15;;
6259;SDS011;3163;51.516;4.000;2023-06-10T12:16:31;4.88;;;3.97;;
6259;SDS011;3163;51.516;4.000;2023-06-10T12:19:01;3.95;;;3.65;;
6259;SDS011;3163;51.516;4.000;2023-06-10T12:21:27;7.85;;;4.03;;
6259;SDS011;3163;51.516;4.000;2023-06-10T12:24:09;4.78;;;4.38;;
6259;SDS011;3163;51.516;4.000;2023-06-10T12:26:42;3.60;;;3.30;;
6259;SDS011;3163;51.516;4.000;2023-06-10T12:31:57;4.38;;;3.97;;
6259;SDS011;3163;51.516;4.000;2023-06-10T12:34:36;4.50;;;4.10;;
6259;SDS011;3163;51.516;4.000;2023-06-10T12:37:03;4.50;;;4.10;;
6259;SDS011;3163;51.516;4.000;2023-06-10T12:39:33;6.47;;;3.90;;
6259;SDS011;3163;51.516;4.000;2023-06-10T12:41:59;5.70;;;4.03;;
6259;SDS011;3163;51.516;4.000;2023-06-10T12:44:29;3.83;;;3.53;;
6259;SDS011;3163;51.516;4.000;2023-06-10T12:46:55;4.00;;;3.70;;
6259;SDS011;3163;51.516;4.000;2023-06-10T12:49:21;4.38;;;3.78;;
6259;SDS011;3163;51.516;4.000;2023-06-10T12:51:47;3.92;;;3.42;;
6259;SDS011;3163;51.516;4.000;2023-06-10T12:54:13;3.78;;;3.47;;
6259;SDS011;3163;51.516;4.000;2023-06-10T12:56:40;4.32;;;3.92;;
6259;SDS011;3163;51.516;4.000;2023-06-10T12:59:06;3.65;;;3.35;;
6259;SDS011;3163;51.516;4.000;2023-06-10T13:01:32;3.88;;;3.53;;
6259;SDS011;3163;51.516;4.000;2023-06-10T13:03:58;4.22;;;3.83;;
6259;SDS011;3163;51.516;4.000;2023-06-10T13:06:24;4.50;;;4.10;;
6259;SDS011;3163;51.516;4.000;2023-06-10T13:08:51;4.90;;;4.25;;
6259;SDS011;3163;51.516;4.000;2023-06-10T13:11:17;3.67;;;3.38;;
6259;SDS011;3163;51.516;4.000;2023-06-10T13:13:43;4.00;;;3.67;;
6259;SDS011;3163;51.516;4.000;2023-06-10T13:16:11;4.80;;;4.40;;
6259;SDS011;3163;51.516;4.000;2023-06-10T13:18:37;4.28;;;3.88;;
6259;SDS011;3163;51.516;4.000;2023-06-10T13:21:03;3.83;;;3.53;;
6259;SDS011;3163;51.516;4.000;2023-06-10T13:23:29;3.67;;;3.22;;
6259;SDS011;3163;51.516;4.000;2023-06-10T13:25:56;5.28;;;3.83;;
6259;SDS011;3163;51.516;4.000;2023-06-10T13:28:22;3.97;;;3.58;;
6259;SDS011;3163;51.516;4.000;2023-06-10T13:30:48;3.60;;;3.30;;
6259;SDS011;3163;51.516;4.000;2023-06-10T13:33:15;5.97;;;3.70;;
6259;SDS011;3163;51.516;4.000;2023-06-10T13:35:41;3.40;;;3.13;;
6259;SDS011;3163;51.516;4.000;2023-06-10T13:38:07;3.65;;;3.33;;
6259;SDS011;3163;51.516;4.000;2023-06-10T13:40:33;4.20;;;3.90;;
6259;SDS011;3163;51.516;4.000;2023-06-10T13:42:59;6.00;;;4.20;;
6259;SDS011;3163;51.516;4.000;2023-06-10T13:45:25;4.35;;;4.00;;
6259;SDS011;3163;51.516;4.000;2023-06-10T13:47:53;3.65;;;3.35;;
6259;SDS011;3163;51.516;4.000;2023-06-10T13:50:19;4.13;;;3.78;;
6259;SDS011;3163;51.516;4.000;2023-06-10T13:52:45;5.10;;;3.60;;
6259;SDS011;3163;51.516;4.000;2023-06-10T13:55:11;5.05;;;3.70;;
6259;SDS011;3163;51.516;4.000;2023-06-10T13:57:37;3.97;;;3.58;;
6259;SDS011;3163;51.516;4.000;2023-06-10T14:00:03;5.30;;;4.13;;
6259;SDS011;3163;51.516;4.000;2023-06-10T14:02:29;5.10;;;4.15;;
6259;SDS011;3163;51.516;4.000;2023-06-10T14:04:55;4.22;;;3.83;;
6259;SDS011;3163;51.516;4.000;2023-06-10T14:07:21;4.05;;;3.67;;
6259;SDS011;3163;51.516;4.000;2023-06-10T14:09:47;4.00;;;3.65;;
6259;SDS011;3163;51.516;4.000;2023-06-10T14:12:13;4.78;;;4.30;;
6259;SDS011;3163;51.516;4.000;2023-06-10T14:14:39;3.50;;;3.20;;
6259;SDS011;3163;51.516;4.000;2023-06-10T14:17:06;3.58;;;3.28;;
6259;SDS011;3163;51.516;4.000;2023-06-10T14:19:32;4.07;;;3.78;;
6259;SDS011;3163;51.516;4.000;2023-06-10T14:21:58;3.95;;;3.55;;
6259;SDS011;3163;51.516;4.000;2023-06-10T14:24:24;4.32;;;3.88;;
6259;SDS011;3163;51.516;4.000;2023-06-10T14:26:50;3.70;;;3.47;;
6259;SDS011;3163;51.516;4.000;2023-06-10T14:29:16;4.05;;;3.70;;
6259;SDS011;3163;51.516;4.000;2023-06-10T14:31:43;6.88;;;3.85;;
6259;SDS011;3163;51.516;4.000;2023-06-10T14:34:09;4.10;;;3.80;;
6259;SDS011;3163;51.516;4.000;2023-06-10T14:36:35;4.65;;;3.78;;
6259;SDS011;3163;51.516;4.000;2023-06-10T14:39:02;4.20;;;3.28;;
6259;SDS011;3163;51.516;4.000;2023-06-10T14:41:29;4.43;;;4.13;;
6259;SDS011;3163;51.516;4.000;2023-06-10T14:43:55;4.10;;;3.75;;
6259;SDS011;3163;51.516;4.000;2023-06-10T14:46:21;4.20;;;3.90;;
6259;SDS011;3163;51.516;4.000;2023-06-10T14:48:47;3.90;;;3.50;;
6259;SDS011;3163;51.516;4.000;2023-06-10T14:51:14;3.88;;;3.58;;
6259;SDS011;3163;51.516;4.000;2023-06-10T14:53:40;4.43;;;4.13;;
6259;SDS011;3163;51.516;4.000;2023-06-10T14:56:06;3.92;;;3.53;;
6259;SDS011;3163;51.516;4.000;2023-06-10T14:58:32;4.10;;;3.70;;
6259;SDS011;3163;51.516;4.000;2023-06-10T15:00:58;6.78;;;3.97;;
6259;SDS011;3163;51.516;4.000;2023-06-10T15:03:24;4.82;;;3.38;;
6259;SDS011;3163;51.516;4.000;2023-06-10T15:05:50;6.63;;;3.60;;
6259;SDS011;3163;51.516;4.000;2023-06-10T15:08:16;3.90;;;3.55;;
6259;SDS011;3163;51.516;4.000;2023-06-10T15:10:42;4.32;;;3.92;;
6259;SDS011;3163;51.516;4.000;2023-06-10T15:13:08;3.60;;;3.05;;
6259;SDS011;3163;51.516;4.000;2023-06-10T15:15:34;5.20;;;4.38;;
6259;SDS011;3163;51.516;4.000;2023-06-10T15:18:00;4.93;;;4.32;;
6259;SDS011;3163;51.516;4.000;2023-06-10T15:20:26;3.88;;;3.67;;
6259;SDS011;3163;51.516;4.000;2023-06-10T15:22:52;5.07;;;4.60;;
6259;SDS011;3163;51.516;4.000;2023-06-10T15:25:18;4.30;;;4.00;;
6259;SDS011;3163;51.516;4.000;2023-06-10T15:27:45;4.72;;;4.28;;
6259;SDS011;3163;51.516;4.000;2023-06-10T15:30:11;7.13;;;5.03;;
6259;SDS011;3163;51.516;4.000;2023-06-10T15:32:37;5.25;;;4.15;;